RIPO2: Cimarron River Near Ripley, OK

                                SHEF ID:       RIPO2     Cimarron River near Ripley, OK
STATION TYPE:
Regulating: Stage = 20.00, Flow = 33370

PRECIP ELEVATION STAGE RIV-FLOW AIR-TEMP WIND-DIRWIND-SPEED REL-HUMID VOLTAGE BAT-LOAD
in ft ft cfs F deg mph % volt volt
Ccp-Rev Ccp-Rev Ccp-Rev Ccp-Rev Ccp-Rev Ccp-Rev Ccp-Rev Ccp-Rev Ccp-Rev Ccp-Rev
(America/Chicago)
03/27 00:00 0.00 ---- 7.29 357 168.80 ---- ---- ---- ---- 12.63
03/27 01:00 0.00 ---- 7.28 353 163.76 ---- ---- ---- ---- 12.60
03/27 02:00 0.00 ---- 7.22 332 159.62 ---- ---- ---- ---- 12.59
03/27 03:00 0.00 ---- 7.22 332 155.84 ---- ---- ---- ---- 12.57
03/27 04:00 0.00 ---- 7.18 318 150.80 ---- ---- ---- ---- 12.57
03/27 05:00 0.00 ---- 7.18 318 140.00 ---- ---- ---- ---- 12.55
03/27 06:00 0.00 ---- 7.18 318 137.12 ---- ---- ---- ---- 12.53
03/27 07:00 0.00 ---- 7.19 321 131.90 ---- ---- ---- ---- 12.53
03/27 08:00 0.03 ---- 7.22 332 120.92 ---- ---- ---- ---- 12.50
03/27 09:00 0.00 ---- 7.20 325 114.98 ---- ---- ---- ---- 12.49
03/27 10:00 0.00 ---- 7.18 318 117.50 ---- ---- ---- ---- 12.53
03/27 11:00 0.00 ---- 7.19 321 120.92 ---- ---- ---- ---- 12.79
03/27 12:00 0.00 ---- 7.20 325 125.78 ---- ---- ---- ---- 13.39
03/27 13:00 0.00 ---- 7.19 321 134.60 ---- ---- ---- ---- 13.62
03/27 14:00 0.00 ---- 7.18 318 139.10 ---- ---- ---- ---- 13.57
03/27 15:00 0.00 ---- 7.17 315 143.24 ---- ---- ---- ---- 13.51
03/27 16:00 0.00 ---- 7.16 311 145.94 ---- ---- ---- ---- 13.49
03/27 17:00 0.00 ---- 7.16 311 144.68 ---- ---- ---- ---- 13.48
03/27 18:00 0.00 ---- 7.18 318 142.70 ---- ---- ---- ---- 13.49
03/27 19:00 0.00 ---- 7.21 328 140.00 ---- ---- ---- ---- 13.49
03/27 20:00 0.00 ---- 7.22 332 136.04 ---- ---- ---- ---- 13.48
03/27 21:00 0.00 ---- 7.23 335 134.60 ---- ---- ---- ---- 13.23
03/27 22:00 0.00 ---- 7.22 332 133.70 ---- ---- ---- ---- 13.05
03/27 23:00 0.00 ---- 7.21 328 132.98 ---- ---- ---- ---- 12.90
Data processed at Sat 28Mar2026 04:02 GMT

NOTICE: If you are parsing this page

Please convert to using our Data API. Starting early 2026 we will be migrating to: https://water.usace.army.mil with modern pages rendered in JavaScript. When this migration completes you will no longer be able to scrape this page! CWMSDataAPI (CDA)

Timeseries IDs (TSIDs)

TSIDs used from left to right in the data table
RIPL.Precip-Inc.Total.1Hour.1Hour.Ccp-Rev
RIPL.Stage.Inst.1Hour.0.Ccp-Rev
RIPL.Flow.Inst.1Hour.0.Ccp-Rev
RIPL.Temp-Air.Inst.1Hour.0.Ccp-Rev
RIPL.Dir-Wind.Inst.1Hour.0.Ccp-Rev
RIPL.Speed-Wind.Inst.1Hour.0.Ccp-Rev
RIPL.%-Humidity.Inst.1Hour.0.Ccp-Rev
RIPL.Volt-Battery.Inst.1Hour.0.Ccp-Rev
RIPL.Volt-Battery Load.Inst.1Hour.0.Ccp-Rev

                            

All information presented herein is the property of the government of the United States of America and may be revised or deleted at any time without prior notice. Dissemination of this information without the expressed written consent of the Public Affairs Office, Tulsa District U.S. Army Corps of Engineers is strictly prohibited. These data are gathered electronically and, as presented, have NOT undergone any form of quality control. These data are NOT guaranteed to be valid or correct.